Time;durP1;ratioP1;P1;durP2;ratioP2;P2;SDS_P1;SDS_P2;PMS_P1;PMS_P2;Temp;Humidity;BMP_temperature;BMP_pressure;BME280_temperature;BME280_humidity;BME280_pressure;Samples;Min_cycle;Max_cycle;Signal;HPM_P1;HPM_P2
2021/12/22 00:00:14;;;;;;;62.40;29.67;;;-0.90;99.90;;;;;;5031038;28;20057;-57
2021/12/22 00:02:46;;;;;;;61.67;29.27;;;-0.90;99.90;;;;;;5030509;28;20549;-58
2021/12/22 00:05:22;;;;;;;57.13;29.95;;;-0.90;99.90;;;;;;5030698;28;20018;-58
2021/12/22 00:07:48;;;;;;;61.67;30.35;;;-1.00;99.90;;;;;;5029243;28;20040;-58
2021/12/22 00:10:15;;;;;;;51.92;28.50;;;-1.10;99.90;;;;;;5029116;28;20096;-58
2021/12/22 00:12:41;;;;;;;51.10;29.92;;;-1.20;99.90;;;;;;5029463;28;20025;-58
2021/12/22 00:15:07;;;;;;;66.30;31.33;;;-1.20;99.90;;;;;;5031365;28;20026;-58
2021/12/22 00:17:33;;;;;;;74.53;38.78;;;-1.10;99.90;;;;;;5030402;28;20057;-58
2021/12/22 00:19:59;;;;;;;75.40;39.47;;;-1.00;99.90;;;;;;5029307;28;20055;-58
2021/12/22 00:22:25;;;;;;;68.85;37.92;;;-0.90;99.90;;;;;;5030862;28;20025;-58
2021/12/22 00:24:50;;;;;;;64.70;35.05;;;-0.80;99.90;;;;;;5022685;28;20088;-58
2021/12/22 00:27:16;;;;;;;70.00;36.20;;;-0.90;99.90;;;;;;5021908;28;20071;-58
2021/12/22 00:29:46;;;;;;;64.82;38.15;;;-0.80;99.90;;;;;;5030606;28;20048;-58
2021/12/22 00:32:14;;;;;;;73.22;40.30;;;-0.80;99.90;;;;;;5030065;28;20044;-58
2021/12/22 00:34:50;;;;;;;65.85;37.45;;;-0.80;99.90;;;;;;5030376;28;20024;-58
2021/12/22 00:37:19;;;;;;;66.40;36.25;;;-0.80;99.90;;;;;;5030210;28;20032;-58
2021/12/22 00:39:45;;;;;;;61.53;33.88;;;-0.80;99.90;;;;;;5030593;28;20021;-58
2021/12/22 00:42:13;;;;;;;63.03;33.13;;;-0.90;99.90;;;;;;5028815;28;20032;-58
2021/12/22 00:44:40;;;;;;;64.45;34.78;;;-0.80;99.90;;;;;;5029303;28;20191;-58
2021/12/22 00:47:06;;;;;;;66.43;35.05;;;-0.70;99.90;;;;;;5030124;28;20033;-58
2021/12/22 00:49:32;;;;;;;55.47;33.22;;;-0.70;99.90;;;;;;5030116;28;20044;-58
2021/12/22 00:51:58;;;;;;;62.17;32.75;;;-0.70;99.90;;;;;;5028875;28;20025;-58
2021/12/22 00:54:23;;;;;;;59.17;33.60;;;-0.70;99.90;;;;;;5030271;28;20659;-58
2021/12/22 00:56:49;;;;;;;62.90;32.08;;;-0.70;99.90;;;;;;5029888;28;20493;-58
2021/12/22 00:59:17;;;;;;;60.60;32.50;;;-0.60;99.90;;;;;;5029782;28;20425;-58
2021/12/22 01:01:44;;;;;;;58.30;32.95;;;-0.60;99.90;;;;;;5030213;28;20498;-58
2021/12/22 01:04:09;;;;;;;64.13;33.17;;;-0.70;99.90;;;;;;5029993;28;20099;-58
2021/12/22 01:06:35;;;;;;;54.58;29.95;;;-0.70;99.90;;;;;;5030279;28;20033;-58
2021/12/22 01:09:03;;;;;;;53.88;30.35;;;-0.60;99.90;;;;;;5030024;28;20103;-58
2021/12/22 01:11:29;;;;;;;52.63;29.63;;;-0.80;99.90;;;;;;5029946;28;20422;-58
2021/12/22 01:13:55;;;;;;;59.10;31.10;;;-0.90;99.90;;;;;;5028825;28;20021;-58
2021/12/22 01:16:20;;;;;;;49.42;29.65;;;-1.00;99.90;;;;;;5028986;28;20021;-58
2021/12/22 01:18:46;;;;;;;57.20;30.67;;;-1.20;99.90;;;;;;5030344;28;20029;-58
2021/12/22 01:21:19;;;;;;;53.67;29.25;;;-1.20;99.90;;;;;;5029827;28;20049;-58
2021/12/22 01:24:03;;;;;;;59.50;30.92;;;-1.10;99.90;;;;;;5030279;28;20035;-58
2021/12/22 01:26:31;;;;;;;54.70;28.80;;;-1.00;99.90;;;;;;5029875;28;20053;-58
2021/12/22 01:28:57;;;;;;;53.53;28.98;;;-1.10;99.90;;;;;;5030033;28;20029;-58
2021/12/22 01:31:23;;;;;;;53.75;30.52;;;-1.10;99.90;;;;;;5029552;28;20029;-58
2021/12/22 01:33:49;;;;;;;52.45;29.25;;;-1.00;99.90;;;;;;5028612;28;20022;-58
2021/12/22 01:36:14;;;;;;;52.17;29.60;;;-1.10;99.90;;;;;;5030317;28;20425;-58
2021/12/22 01:38:40;;;;;;;56.63;30.25;;;-1.10;99.90;;;;;;5033182;28;20096;-58
2021/12/22 01:41:06;;;;;;;44.83;27.77;;;-1.10;99.90;;;;;;5033476;28;20108;-58
2021/12/22 01:43:32;;;;;;;49.47;28.85;;;-1.30;99.90;;;;;;5033660;28;20045;-58
2021/12/22 01:51:38;;;;;;;50.03;28.33;;;-1.50;99.90;;;;;;5033411;28;20442;-58
2021/12/22 01:54:13;;;;;;;;;;;-1.40;99.90;;;;;;5034202;28;20018;-58
2021/12/22 01:56:39;;;;;;;47.95;28.08;;;-1.30;99.90;;;;;;5033355;28;19920;-58
2021/12/22 01:59:07;;;;;;;54.70;29.77;;;-1.30;99.90;;;;;;5031699;28;20021;-58
2021/12/22 02:01:33;;;;;;;53.33;28.75;;;-1.20;99.90;;;;;;5032869;28;20112;-58
2021/12/22 02:04:01;;;;;;;52.03;28.80;;;-1.20;99.90;;;;;;5033097;28;20138;-58
2021/12/22 02:06:27;;;;;;;46.30;26.90;;;-1.10;99.90;;;;;;5032229;28;20036;-58
2021/12/22 02:08:54;;;;;;;51.33;28.02;;;-1.10;99.90;;;;;;5033313;28;20128;-58
2021/12/22 02:11:21;;;;;;;64.72;28.52;;;-1.10;99.90;;;;;;5033085;28;20033;-58
2021/12/22 02:13:54;;;;;;;50.33;28.73;;;-1.00;99.90;;;;;;5033060;28;20047;-58
2021/12/22 02:16:26;;;;;;;43.63;26.17;;;-1.10;99.90;;;;;;5033017;28;20414;-58
2021/12/22 02:18:53;;;;;;;46.75;26.38;;;-1.10;99.90;;;;;;5031500;28;20045;-58
2021/12/22 02:21:21;;;;;;;42.50;25.02;;;-1.20;99.90;;;;;;5032671;28;20421;-58
2021/12/22 02:23:46;;;;;;;49.30;27.10;;;-1.10;99.90;;;;;;5033316;28;20481;-58
2021/12/22 02:26:24;;;;;;;49.92;27.42;;;-1.20;99.90;;;;;;5032301;28;20107;-58
2021/12/22 02:28:58;;;;;;;53.67;27.50;;;-1.10;99.90;;;;;;5032783;28;20021;-58
2021/12/22 02:31:24;;;;;;;50.85;25.90;;;-1.10;99.90;;;;;;5030920;28;20441;-58
2021/12/22 02:33:51;;;;;;;44.53;26.02;;;-1.10;99.90;;;;;;5032922;28;20439;-58
2021/12/22 02:38:48;;;;;;;47.15;24.75;;;-1.30;99.90;;;;;;5032138;28;20036;-58
2021/12/22 02:41:15;;;;;;;45.80;25.75;;;-1.30;99.90;;;;;;5032540;28;20147;-58
2021/12/22 02:43:52;;;;;;;43.78;24.25;;;-1.20;99.90;;;;;;5032565;28;20025;-58
2021/12/22 02:46:21;;;;;;;48.13;25.88;;;-1.20;99.90;;;;;;5031499;28;20017;-58
2021/12/22 02:48:48;;;;;;;45.60;24.98;;;-1.30;99.90;;;;;;5032274;28;20094;-58
2021/12/22 02:51:14;;;;;;;42.58;24.45;;;-1.30;99.90;;;;;;5032184;28;20079;-58
2021/12/22 02:53:48;;;;;;;45.78;24.20;;;-1.20;99.90;;;;;;5032518;28;20505;-58
2021/12/22 03:03:59;;;;;;;46.33;24.77;;;-1.30;99.90;;;;;;5030799;28;20522;-58
2021/12/22 03:06:55;;;;;;;41.40;23.05;;;-1.20;99.90;;;;;;5032242;28;20021;-58
2021/12/22 03:09:31;;;;;;;46.33;24.23;;;-1.30;99.90;;;;;;5032030;28;20046;-58
2021/12/22 03:12:00;;;;;;;41.45;22.90;;;-1.30;99.90;;;;;;5032148;28;20029;-58
2021/12/22 03:14:26;;;;;;;42.78;23.65;;;-1.40;99.90;;;;;;5032164;28;20483;-58
2021/12/22 03:16:52;;;;;;;45.25;22.02;;;-1.50;99.90;;;;;;5030705;28;20021;-57
2021/12/22 03:19:26;;;;;;;40.35;20.45;;;-1.60;99.90;;;;;;5031765;28;20036;-57
2021/12/22 03:21:59;;;;;;;43.25;22.95;;;-1.70;99.90;;;;;;5031670;28;20148;-57
2021/12/22 03:24:25;;;;;;;40.40;21.73;;;-1.70;99.90;;;;;;5032044;28;20053;-57
2021/12/22 03:26:50;;;;;;;39.13;22.88;;;-1.70;99.90;;;;;;5031565;28;20550;-57
2021/12/22 03:29:18;;;;;;;39.45;21.40;;;-1.80;99.90;;;;;;5031734;28;20047;-57
2021/12/22 03:31:46;;;;;;;42.20;22.70;;;-1.80;99.90;;;;;;5030565;28;20030;-57
2021/12/22 03:34:13;;;;;;;43.38;23.13;;;-1.70;99.90;;;;;;5031550;28;20030;-57
2021/12/22 03:36:41;;;;;;;43.15;23.25;;;-1.80;99.90;;;;;;5031557;28;20040;-57
2021/12/22 03:39:07;;;;;;;48.33;23.58;;;-1.70;99.90;;;;;;5031033;28;20040;-57
2021/12/22 03:41:35;;;;;;;44.20;24.13;;;-1.70;99.90;;;;;;5031807;28;20029;-57
2021/12/22 03:44:01;;;;;;;50.75;30.88;;;-1.80;99.90;;;;;;5032265;28;20044;-57
2021/12/22 03:46:27;;;;;;;42.47;24.35;;;-1.60;99.90;;;;;;5031590;28;20435;-57
2021/12/22 03:48:52;;;;;;;46.95;24.17;;;-1.50;99.90;;;;;;5031497;28;20064;-57
2021/12/22 03:51:18;;;;;;;37.53;22.02;;;-1.50;99.90;;;;;;5031207;28;20057;-57
2021/12/22 03:53:44;;;;;;;37.38;22.45;;;-1.60;99.90;;;;;;5031803;28;20690;-58
2021/12/22 03:56:09;;;;;;;40.17;21.17;;;-1.50;99.90;;;;;;5030387;28;20022;-57
2021/12/22 03:58:35;;;;;;;45.35;22.00;;;-1.60;99.90;;;;;;5031211;28;20029;-57
2021/12/22 04:01:01;;;;;;;38.67;22.40;;;-1.60;99.90;;;;;;5031194;28;20044;-57
2021/12/22 04:03:31;;;;;;;40.85;21.73;;;-1.60;99.90;;;;;;5030130;28;20026;-57
2021/12/22 04:05:58;;;;;;;40.83;22.42;;;-1.70;99.90;;;;;;5031318;28;20069;-57
2021/12/22 04:08:23;;;;;;;42.58;22.75;;;-1.80;99.90;;;;;;5031336;28;20033;-57
2021/12/22 04:10:50;;;;;;;40.60;22.58;;;-1.80;99.90;;;;;;5031576;28;20032;-57
2021/12/22 04:13:17;;;;;;;49.70;26.55;;;-1.60;99.90;;;;;;5031453;28;20021;-57
2021/12/22 04:15:44;;;;;;;52.90;26.75;;;-1.60;99.90;;;;;;5031222;28;20029;-57
2021/12/22 04:18:11;;;;;;;47.55;24.92;;;-1.70;99.90;;;;;;5031270;28;20018;-57
2021/12/22 04:20:37;;;;;;;48.97;25.95;;;-1.80;99.90;;;;;;5030511;28;20109;-58
2021/12/22 04:23:03;;;;;;;40.40;23.25;;;-1.90;99.90;;;;;;5029668;28;20494;-57
2021/12/22 04:25:30;;;;;;;42.00;22.73;;;-2.00;99.90;;;;;;5031311;28;20494;-57
2021/12/22 04:28:04;;;;;;;42.42;22.98;;;-2.10;99.90;;;;;;5030514;28;20505;-57
2021/12/22 04:30:32;;;;;;;43.50;21.75;;;-2.10;99.90;;;;;;5029263;28;20112;-57
2021/12/22 04:32:58;;;;;;;43.33;22.48;;;-2.10;99.90;;;;;;5030617;28;20022;-57
2021/12/22 04:35:24;;;;;;;42.80;21.80;;;-2.10;99.90;;;;;;5030296;28;20101;-57
2021/12/22 04:37:50;;;;;;;46.15;24.42;;;-2.20;99.90;;;;;;5030717;28;20554;-57
2021/12/22 04:40:15;;;;;;;43.65;24.50;;;-2.10;99.90;;;;;;5030467;28;20050;-58
2021/12/22 04:42:42;;;;;;;50.00;30.88;;;-2.10;99.90;;;;;;5030582;28;20054;-57
2021/12/22 04:45:09;;;;;;;49.38;27.45;;;-2.10;99.90;;;;;;5031136;28;20022;-58
2021/12/22 04:47:35;;;;;;;49.38;28.38;;;-2.10;99.90;;;;;;5030742;28;20034;-57
2021/12/22 04:50:02;;;;;;;49.90;28.05;;;-1.90;99.90;;;;;;5030493;28;20072;-57
2021/12/22 04:52:38;;;;;;;52.95;27.48;;;-1.90;99.90;;;;;;5029477;28;20029;-57
2021/12/22 04:55:04;;;;;;;45.97;26.42;;;-1.80;99.90;;;;;;5030614;28;20025;-57
2021/12/22 04:57:32;;;;;;;47.45;26.48;;;-1.90;99.90;;;;;;5030582;28;20086;-57
2021/12/22 05:00:00;;;;;;;50.83;27.73;;;-1.90;99.90;;;;;;5030676;28;20112;-57
2021/12/22 05:02:26;;;;;;;51.83;28.02;;;-1.90;99.90;;;;;;5030433;28;20026;-58
2021/12/22 05:04:52;;;;;;;46.60;27.88;;;-1.80;99.90;;;;;;5028368;28;20375;-57
2021/12/22 05:07:18;;;;;;;51.95;27.90;;;-1.80;99.90;;;;;;5020177;28;20026;-57
2021/12/22 05:09:43;;;;;;;48.10;27.10;;;-1.90;99.90;;;;;;5018648;28;20044;-57
2021/12/22 05:12:09;;;;;;;51.95;29.85;;;-1.90;99.90;;;;;;5034051;28;20048;-57
2021/12/22 05:14:35;;;;;;;52.50;30.52;;;-1.90;99.90;;;;;;5034565;28;20033;-58
2021/12/22 05:17:03;;;;;;;50.30;29.27;;;-1.70;99.90;;;;;;5034050;28;20033;-58
2021/12/22 05:19:29;;;;;;;52.65;28.02;;;-1.90;99.90;;;;;;5034505;28;20018;-57
2021/12/22 05:21:55;;;;;;;50.58;28.52;;;-2.00;99.90;;;;;;5033936;28;20024;-57
2021/12/22 05:24:21;;;;;;;48.70;26.55;;;-2.00;99.90;;;;;;5034231;28;20026;-57
2021/12/22 05:26:47;;;;;;;51.65;29.10;;;-2.10;99.90;;;;;;5033832;28;20049;-58
2021/12/22 05:29:13;;;;;;;53.40;31.20;;;-2.10;99.90;;;;;;5033666;28;20075;-57
2021/12/22 05:31:39;;;;;;;52.45;28.23;;;-2.10;99.90;;;;;;5034044;28;20030;-57
2021/12/22 05:34:04;;;;;;;55.15;30.92;;;-2.10;99.90;;;;;;5034287;28;20030;-58
2021/12/22 05:36:30;;;;;;;68.40;34.92;;;-2.00;99.90;;;;;;5032603;28;20021;-57
2021/12/22 05:38:56;;;;;;;63.13;34.78;;;-1.90;99.90;;;;;;5034305;28;20407;-58
2021/12/22 05:41:22;;;;;;;63.42;34.25;;;-1.90;99.90;;;;;;5033856;28;20029;-58
2021/12/22 05:43:48;;;;;;;61.63;34.35;;;-1.80;99.90;;;;;;5034068;28;20026;-58
2021/12/22 05:46:14;;;;;;;61.67;34.65;;;-1.80;99.90;;;;;;5033831;28;20045;-58
2021/12/22 05:48:40;;;;;;;56.85;32.50;;;-1.70;99.90;;;;;;5033707;28;20128;-57
2021/12/22 05:51:06;;;;;;;59.63;33.40;;;-1.80;99.90;;;;;;5033288;28;20103;-57
2021/12/22 05:53:32;;;;;;;57.92;34.05;;;-1.70;99.90;;;;;;5033220;28;20025;-57
2021/12/22 05:55:58;;;;;;;66.00;35.80;;;-1.70;99.90;;;;;;5034046;28;20384;-57
2021/12/22 05:58:24;;;;;;;59.92;33.45;;;-1.70;99.90;;;;;;5032396;28;20017;-58
2021/12/22 06:00:50;;;;;;;58.75;33.65;;;-1.70;99.90;;;;;;5033729;28;20029;-58
2021/12/22 06:03:16;;;;;;;58.63;31.75;;;-1.60;99.90;;;;;;5033715;28;20489;-58
2021/12/22 06:05:42;;;;;;;53.58;31.02;;;-1.70;99.90;;;;;;5033525;28;20083;-57
2021/12/22 06:08:08;;;;;;;55.72;31.70;;;-1.60;99.90;;;;;;5033405;28;20029;-58
2021/12/22 06:10:34;;;;;;;50.47;29.83;;;-1.60;99.90;;;;;;5033547;28;20060;-57
2021/12/22 06:13:08;;;;;;;55.25;30.95;;;-1.50;99.90;;;;;;5033376;28;20022;-57
2021/12/22 06:15:35;;;;;;;55.85;29.70;;;-1.50;99.90;;;;;;5033180;28;20394;-58
2021/12/22 06:18:04;;;;;;;52.70;28.13;;;-1.60;99.90;;;;;;5033326;28;20092;-58
2021/12/22 06:20:31;;;;;;;54.78;30.48;;;-1.70;99.90;;;;;;5033266;28;20580;-58
2021/12/22 06:22:57;;;;;;;57.20;31.52;;;-1.80;99.90;;;;;;5030660;28;20026;-58
2021/12/22 06:25:24;;;;;;;53.75;30.55;;;-1.70;99.90;;;;;;5033028;28;20115;-57
2021/12/22 06:27:50;;;;;;;55.58;31.05;;;-1.80;99.90;;;;;;5032853;28;20548;-58
2021/12/22 06:30:16;;;;;;;49.75;28.60;;;-1.80;99.90;;;;;;5032889;28;20071;-57
2021/12/22 06:32:42;;;;;;;46.05;27.13;;;-1.70;99.90;;;;;;5032875;28;20036;-57
2021/12/22 06:35:08;;;;;;;46.85;26.20;;;-2.00;99.90;;;;;;5032946;28;20017;-57
2021/12/22 06:37:34;;;;;;;49.42;26.90;;;-2.20;99.90;;;;;;5033316;28;20032;-57
2021/12/22 06:40:00;;;;;;;48.22;27.60;;;-2.40;99.90;;;;;;5032594;28;20041;-57
2021/12/22 06:42:25;;;;;;;52.13;28.30;;;-2.40;99.90;;;;;;5031251;28;20025;-57
2021/12/22 06:44:51;;;;;;;51.55;29.67;;;-2.30;99.90;;;;;;5032766;28;20032;-58
2021/12/22 06:47:17;;;;;;;57.05;30.20;;;-2.20;99.90;;;;;;5032954;28;20033;-57
2021/12/22 06:49:43;;;;;;;54.85;30.75;;;-2.10;99.90;;;;;;5032275;28;20091;-57
2021/12/22 06:52:09;;;;;;;54.38;28.83;;;-2.10;99.90;;;;;;5032414;28;20104;-57
2021/12/22 06:54:35;;;;;;;50.05;28.83;;;-2.10;99.90;;;;;;5032827;28;20372;-57
2021/12/22 06:57:01;;;;;;;54.70;28.58;;;-2.20;99.90;;;;;;5032545;28;20442;-57
2021/12/22 06:59:27;;;;;;;49.88;26.70;;;-2.20;99.90;;;;;;5014838;28;20021;-57
2021/12/22 07:01:52;;;;;;;47.10;27.45;;;-2.20;99.90;;;;;;5032437;28;20147;-58
2021/12/22 07:04:19;;;;;;;52.00;28.15;;;-2.20;99.90;;;;;;5032708;28;20059;-57
2021/12/22 07:06:45;;;;;;;59.55;28.80;;;-2.30;99.90;;;;;;5032746;28;20037;-58
2021/12/22 07:09:10;;;;;;;49.13;27.83;;;-2.20;99.90;;;;;;5032461;28;20030;-57
2021/12/22 07:11:37;;;;;;;49.65;27.35;;;-2.20;99.90;;;;;;5031899;28;20086;-57
2021/12/22 07:14:04;;;;;;;49.92;27.75;;;-2.20;99.90;;;;;;5031755;28;20611;-57
2021/12/22 07:16:30;;;;;;;45.10;26.35;;;-2.30;99.90;;;;;;5031878;28;20144;-59
2021/12/22 07:18:56;;;;;;;55.15;26.80;;;-2.30;99.90;;;;;;5032111;28;20486;-58
2021/12/22 07:21:23;;;;;;;48.80;28.25;;;-2.20;99.90;;;;;;5031640;28;20025;-58
2021/12/22 07:23:49;;;;;;;48.03;27.40;;;-2.20;99.90;;;;;;5031425;28;20045;-57
2021/12/22 07:26:14;;;;;;;55.72;28.30;;;-2.20;99.90;;;;;;5031332;28;20064;-57
2021/12/22 07:28:45;;;;;;;54.00;29.10;;;-2.10;99.90;;;;;;5031345;28;20029;-57
2021/12/22 07:31:12;;;;;;;50.30;28.52;;;-2.00;99.90;;;;;;5019461;28;20053;-58
2021/12/22 07:33:38;;;;;;;60.80;33.25;;;-1.90;99.90;;;;;;5031523;28;20030;-57
2021/12/22 07:36:05;;;;;;;57.05;33.35;;;-1.80;99.90;;;;;;5031381;28;20037;-57
2021/12/22 07:38:35;;;;;;;58.88;32.80;;;-1.80;99.90;;;;;;5031564;28;20506;-57
2021/12/22 07:41:02;;;;;;;61.28;34.03;;;-1.80;99.90;;;;;;5030151;28;20026;-58
2021/12/22 07:43:28;;;;;;;52.35;31.10;;;-1.90;99.90;;;;;;5031649;28;20025;-58
2021/12/22 07:45:54;;;;;;;51.28;28.23;;;-1.90;99.90;;;;;;5031703;28;20080;-58
2021/12/22 07:48:20;;;;;;;54.97;28.50;;;-2.00;99.90;;;;;;5030148;28;20017;-57
2021/12/22 07:50:46;;;;;;;53.15;27.92;;;-2.10;99.90;;;;;;5030909;28;20112;-57
2021/12/22 07:53:12;;;;;;;47.25;27.20;;;-2.10;99.90;;;;;;5029931;28;20026;-57
2021/12/22 07:55:38;;;;;;;57.20;27.70;;;-2.00;99.90;;;;;;5031072;28;20102;-57
2021/12/22 07:58:03;;;;;;;42.30;25.23;;;-2.00;99.90;;;;;;5030920;28;20037;-58
2021/12/22 08:00:29;;;;;;;47.45;25.13;;;-1.90;99.90;;;;;;5030914;28;20029;-58
2021/12/22 08:02:56;;;;;;;44.90;24.58;;;-1.80;99.90;;;;;;5030900;28;20482;-58
2021/12/22 08:05:22;;;;;;;43.80;23.90;;;-1.80;99.90;;;;;;5032021;28;20037;-58
2021/12/22 08:07:47;;;;;;;41.47;22.60;;;-1.80;99.90;;;;;;5030123;28;20056;-57
2021/12/22 08:10:13;;;;;;;43.17;22.35;;;-1.70;99.90;;;;;;5031148;28;20498;-58
2021/12/22 08:12:39;;;;;;;41.55;22.27;;;-1.80;99.90;;;;;;5030722;28;20021;-57
2021/12/22 08:15:05;;;;;;;40.65;22.88;;;-2.00;99.90;;;;;;5031153;28;20517;-57
2021/12/22 08:17:32;;;;;;;41.47;21.70;;;-1.80;99.90;;;;;;5030934;28;20568;-58
2021/12/22 08:19:59;;;;;;;32.38;18.20;;;-1.60;99.90;;;;;;5030803;28;20040;-57
2021/12/22 08:22:25;;;;;;;31.38;16.88;;;-1.50;99.90;;;;;;5031357;28;20548;-57
2021/12/22 08:24:51;;;;;;;30.75;18.05;;;-1.40;99.90;;;;;;5026627;28;20022;-57
2021/12/22 08:27:19;;;;;;;30.88;16.67;;;-1.40;99.90;;;;;;5018200;28;20084;-57
2021/12/22 08:29:45;;;;;;;32.47;17.13;;;-1.40;99.90;;;;;;5023543;28;20037;-57
2021/12/22 08:32:11;;;;;;;38.05;19.23;;;-1.40;99.90;;;;;;5030655;28;20022;-57
2021/12/22 08:34:39;;;;;;;34.60;18.63;;;-1.40;99.90;;;;;;5031023;28;20030;-57
2021/12/22 08:39:51;;;;;;;36.95;19.23;;;-1.50;99.90;;;;;;5030645;28;20532;-57
2021/12/22 08:42:17;;;;;;;33.10;19.98;;;-1.40;99.90;;;;;;5031241;28;20060;-57
2021/12/22 08:44:43;;;;;;;35.72;20.75;;;-1.30;99.90;;;;;;5030806;28;20117;-57
2021/12/22 08:47:09;;;;;;;41.15;22.35;;;-1.30;99.90;;;;;;5030151;28;20521;-57
2021/12/22 08:49:35;;;;;;;33.90;19.58;;;-1.20;99.90;;;;;;5029414;28;20116;-57
2021/12/22 08:52:01;;;;;;;39.92;20.38;;;-1.20;99.90;;;;;;5030186;28;20029;-57
2021/12/22 08:54:28;;;;;;;36.58;19.88;;;-1.20;99.90;;;;;;5031671;28;20033;-57
2021/12/22 08:56:55;;;;;;;54.88;28.98;;;-1.10;99.90;;;;;;5028723;28;20120;-57
2021/12/22 08:59:22;;;;;;;43.03;24.20;;;-1.10;99.90;;;;;;5030473;28;20056;-57
2021/12/22 09:01:49;;;;;;;38.67;20.75;;;-1.00;99.90;;;;;;5030914;28;20033;-57
2021/12/22 09:04:15;;;;;;;32.05;18.52;;;-0.90;99.90;;;;;;5030903;28;20030;-58
2021/12/22 09:06:42;;;;;;;41.85;19.67;;;-0.70;99.90;;;;;;5030394;28;20368;-58
2021/12/22 09:09:09;;;;;;;34.15;18.98;;;-0.60;99.90;;;;;;5030366;28;20044;-58
2021/12/22 09:11:35;;;;;;;36.78;19.05;;;-0.30;99.90;;;;;;5030469;28;20083;-58
2021/12/22 09:14:03;;;;;;;34.50;18.35;;;-0.20;99.90;;;;;;5030780;28;20026;-57
2021/12/22 09:16:29;;;;;;;38.90;19.42;;;-0.10;99.90;;;;;;5029258;28;20334;-58
2021/12/22 09:18:56;;;;;;;36.97;19.42;;;0.10;99.90;;;;;;5030544;28;20037;-58
2021/12/22 09:21:22;;;;;;;37.88;18.77;;;0.40;99.90;;;;;;5030954;28;20033;-58
2021/12/22 09:23:48;;;;;;;31.13;18.00;;;0.60;99.90;;;;;;5029356;28;20422;-58
2021/12/22 09:26:14;;;;;;;34.85;17.27;;;0.80;99.90;;;;;;5021655;28;20406;-58
2021/12/22 09:28:40;;;;;;;34.95;16.88;;;1.00;99.90;;;;;;5016618;28;20418;-58
2021/12/22 09:31:07;;;;;;;32.35;16.58;;;1.50;99.90;;;;;;5029039;28;20030;-58
2021/12/22 09:33:33;;;;;;;30.98;16.80;;;2.00;99.90;;;;;;5030341;28;20057;-58
2021/12/22 09:36:00;;;;;;;27.02;15.55;;;2.00;99.90;;;;;;5030305;28;20017;-58
2021/12/22 09:38:25;;;;;;;31.90;15.43;;;2.80;99.90;;;;;;5030664;28;20024;-58
2021/12/22 09:40:51;;;;;;;23.48;16.02;;;3.40;99.90;;;;;;5030263;28;20018;-58
2021/12/22 09:43:17;;;;;;;30.65;17.00;;;3.30;99.90;;;;;;5029821;28;20151;-58
2021/12/22 09:45:48;;;;;;;28.00;17.85;;;2.70;99.90;;;;;;5028906;28;20032;-58
2021/12/22 09:53:16;;;;;;;32.53;18.98;;;3.70;99.90;;;;;;5029910;28;20440;-58
2021/12/22 09:55:43;;;;;;;33.05;19.15;;;3.40;99.90;;;;;;5029914;28;20032;-58
2021/12/22 09:58:11;;;;;;;45.30;24.83;;;3.70;99.90;;;;;;5030932;28;20026;-58
2021/12/22 10:00:38;;;;;;;34.10;18.05;;;3.70;99.90;;;;;;5033858;28;20037;-58
2021/12/22 10:03:06;;;;;;;23.73;15.73;;;3.00;99.90;;;;;;5030516;28;20044;-58
2021/12/22 10:05:33;;;;;;;24.10;15.35;;;3.50;99.90;;;;;;5023212;28;20025;-58
2021/12/22 10:08:14;;;;;;;24.35;16.08;;;4.30;99.90;;;;;;5032157;28;20044;-58
2021/12/22 10:10:44;;;;;;;26.58;15.75;;;5.10;99.90;;;;;;5033060;28;20380;-58
2021/12/22 10:13:13;;;;;;;28.63;16.17;;;5.10;99.90;;;;;;5033496;28;20040;-58
2021/12/22 10:15:39;;;;;;;28.55;15.57;;;4.60;99.90;;;;;;5032803;28;20071;-58
2021/12/22 10:18:18;;;;;;;26.50;16.13;;;4.00;99.90;;;;;;5032877;28;20737;-58
2021/12/22 10:20:46;;;;;;;25.77;15.45;;;3.40;99.90;;;;;;5033219;28;20032;-58
2021/12/22 10:23:30;;;;;;;25.77;15.98;;;3.00;99.90;;;;;;5033251;28;20033;-58
2021/12/22 10:26:00;;;;;;;27.67;16.50;;;2.70;99.90;;;;;;5031828;28;20128;-58
2021/12/22 10:28:29;;;;;;;29.92;17.35;;;2.40;99.90;;;;;;5033030;28;20368;-58
2021/12/22 10:30:58;;;;;;;30.25;17.73;;;2.00;99.90;;;;;;5032713;28;20033;-58
2021/12/22 10:33:27;;;;;;;33.42;17.67;;;2.10;99.90;;;;;;5032868;28;20530;-58
2021/12/22 10:36:03;;;;;;;30.42;17.63;;;2.10;99.90;;;;;;5032823;28;20022;-58
2021/12/22 10:38:31;;;;;;;29.83;17.75;;;1.90;99.90;;;;;;5031487;28;20021;-58
2021/12/22 10:41:09;;;;;;;28.42;16.98;;;1.90;99.90;;;;;;5031256;28;20025;-58
2021/12/22 10:43:42;;;;;;;31.27;16.20;;;2.10;99.90;;;;;;5032781;28;20104;-58
2021/12/22 10:46:14;;;;;;;31.58;17.20;;;2.20;99.90;;;;;;5032968;28;20028;-58
2021/12/22 10:51:27;;;;;;;26.52;14.88;;;2.80;99.90;;;;;;5032859;28;20043;-58
2021/12/22 10:53:53;;;;;;;25.42;15.15;;;2.90;99.90;;;;;;5032617;28;20056;-58
2021/12/22 10:56:57;;;;;;;28.67;16.05;;;3.20;99.90;;;;;;5032137;28;20045;-58
2021/12/22 10:59:22;;;;;;;25.77;15.45;;;3.20;99.90;;;;;;5009813;28;20029;-58
2021/12/22 11:01:54;;;;;;;22.35;14.02;;;3.70;99.90;;;;;;5027927;28;20099;-58
2021/12/22 11:04:25;;;;;;;25.77;14.43;;;4.40;99.90;;;;;;5032152;28;20430;-58
2021/12/22 11:06:53;;;;;;;18.63;13.07;;;4.90;99.90;;;;;;5030798;28;20057;-58
2021/12/22 11:09:22;;;;;;;39.13;23.52;;;4.40;99.90;;;;;;5031482;28;20071;-58
2021/12/22 11:11:57;;;;;;;35.25;21.15;;;4.50;99.90;;;;;;5032154;28;20038;-58
2021/12/22 11:14:29;;;;;;;22.33;13.30;;;4.80;99.90;;;;;;5031902;28;20079;-58
2021/12/22 11:17:14;;;;;;;20.13;13.60;;;5.50;99.90;;;;;;5032398;28;20029;-58
2021/12/22 11:19:52;;;;;;;21.70;13.32;;;5.60;99.90;;;;;;5031168;28;20036;-58
2021/12/22 11:22:22;;;;;;;19.83;13.18;;;5.70;99.90;;;;;;5031735;28;20025;-58
2021/12/22 11:24:50;;;;;;;21.38;12.25;;;5.90;99.90;;;;;;5030578;28;20039;-58
2021/12/22 11:27:19;;;;;;;20.90;12.40;;;6.20;99.90;;;;;;5031779;28;20029;-58
2021/12/22 11:29:51;;;;;;;16.60;11.88;;;6.30;99.90;;;;;;5030321;28;20079;-58
2021/12/22 11:32:19;;;;;;;;;;;6.20;99.90;;;;;;5031403;28;20029;-58
2021/12/22 11:34:48;;;;;;;17.70;11.18;;;5.70;99.90;;;;;;5026485;28;20367;-58
2021/12/22 11:37:14;;;;;;;18.67;10.95;;;5.90;99.90;;;;;;5026088;28;20064;-58
2021/12/22 11:39:41;;;;;;;18.63;10.38;;;6.50;99.90;;;;;;5031240;28;20045;-58
2021/12/22 11:42:09;;;;;;;15.00;10.82;;;7.20;99.90;;;;;;5032697;28;20422;-58
2021/12/22 11:44:36;;;;;;;15.32;9.50;;;7.80;99.90;;;;;;5032826;28;20482;-58
2021/12/22 11:47:10;;;;;;;16.67;10.07;;;7.10;99.90;;;;;;5033301;28;20025;-58
2021/12/22 11:49:47;;;;;;;16.50;10.65;;;6.80;99.90;;;;;;5032455;28;20553;-58
2021/12/22 11:52:45;;;;;;;13.07;9.65;;;6.30;99.90;;;;;;5031244;28;20025;-58
2021/12/22 11:55:15;;;;;;;12.93;9.10;;;6.20;99.90;;;;;;5031714;28;20026;-58
2021/12/22 11:57:42;;;;;;;17.20;10.10;;;6.30;99.90;;;;;;5031002;28;20022;-58
2021/12/22 12:00:35;;;;;;;14.88;9.32;;;6.20;99.90;;;;;;5031346;28;20104;-58
2021/12/22 12:03:23;;;;;;;14.85;9.93;;;6.30;99.90;;;;;;5031643;28;20029;-58
2021/12/22 12:06:08;;;;;;;19.17;10.45;;;6.30;99.90;;;;;;5030021;28;20040;-58
2021/12/22 12:08:47;;;;;;;15.23;9.65;;;6.50;99.90;;;;;;5020101;28;20032;-58
2021/12/22 12:11:51;;;;;;;16.02;10.20;;;6.30;99.90;;;;;;5011691;28;20087;-58
2021/12/22 12:14:34;;;;;;;16.13;10.13;;;6.30;99.90;;;;;;5012180;28;20037;-58
2021/12/22 12:23:24;;;;;;;17.38;9.75;;;6.80;99.90;;;;;;5010992;28;19998;-58
2021/12/22 12:25:50;;;;;;;17.10;10.73;;;6.10;99.90;;;;;;5011014;28;20180;-58
2021/12/22 12:28:18;;;;;;;15.95;10.13;;;6.00;99.90;;;;;;5011130;28;20100;-58
2021/12/22 12:30:45;;;;;;;17.40;10.00;;;5.80;99.90;;;;;;5011174;28;20398;-58
2021/12/22 12:33:19;;;;;;;16.92;10.95;;;5.60;99.90;;;;;;5012483;28;20056;-58
2021/12/22 12:36:00;;;;;;;15.85;9.90;;;5.70;99.90;;;;;;5013253;28;20556;-58
2021/12/22 12:38:30;;;;;;;20.00;10.38;;;6.10;99.90;;;;;;5011068;28;20026;-58
2021/12/22 12:41:05;;;;;;;19.98;11.20;;;6.40;99.90;;;;;;5010899;28;20109;-58
2021/12/22 12:43:43;;;;;;;20.77;13.05;;;6.90;99.90;;;;;;5024737;28;20026;-58
2021/12/22 12:46:20;;;;;;;16.58;11.13;;;7.00;99.90;;;;;;5016546;28;20056;-58
2021/12/22 12:48:46;;;;;;;16.40;10.93;;;7.00;99.90;;;;;;5023438;28;20026;-58
2021/12/22 12:51:17;;;;;;;17.90;11.23;;;6.80;99.90;;;;;;5016108;28;20037;-58
2021/12/22 12:53:45;;;;;;;20.73;12.10;;;6.80;99.90;;;;;;5010980;28;20101;-58
2021/12/22 12:56:12;;;;;;;21.58;11.43;;;7.10;99.90;;;;;;5010938;28;20036;-58
2021/12/22 12:59:17;;;;;;;16.38;10.50;;;7.20;99.90;;;;;;5011426;28;20101;-58
2021/12/22 13:01:46;;;;;;;18.40;11.40;;;7.00;99.90;;;;;;5022592;28;20137;-58
2021/12/22 13:04:35;;;;;;;18.92;12.63;;;6.70;99.90;;;;;;5019452;28;20054;-58
2021/12/22 13:07:03;;;;;;;17.23;10.95;;;6.90;99.90;;;;;;5024413;28;20037;-58
2021/12/22 13:09:30;;;;;;;18.02;12.77;;;6.40;99.90;;;;;;5030542;28;20025;-58